Time;durP1;ratioP1;P1;durP2;ratioP2;P2;SDS_P1;SDS_P2;PMS_P1;PMS_P2;Temp;Humidity;BMP_temperature;BMP_pressure;BME280_temperature;BME280_humidity;BME280_pressure;Samples;Min_cycle;Max_cycle;Signal;HPM_P1;HPM_P2
2023/04/07 00:00:54;;;;;;;;;;;;;;;7.27;42.73;99473.28;5070296;28;20450;-36
2023/04/07 00:03:19;;;;;;;;;;;;;;;7.28;42.83;99471.47;5070465;28;19951;-36
2023/04/07 00:05:45;;;;;;;;;;;;;;;7.03;43.03;99477.94;5070228;28;19932;-36
2023/04/07 00:08:10;;;;;;;;;;;;;;;7.03;42.60;99472.63;5070239;28;19912;-36
2023/04/07 00:10:35;;;;;;;;;;;;;;;7.22;42.41;99473.84;5070868;28;19917;-36
2023/04/07 00:13:01;;;;;;;;;;;;;;;7.23;42.20;99475.50;5082838;28;19973;-36
2023/04/07 00:15:26;;;;;;;;;;;;;;;6.97;42.68;99473.41;5070480;28;19920;-35
2023/04/07 00:17:51;;;;;;;;;;;;;;;6.78;42.93;99476.63;5070374;28;19960;-36
2023/04/07 00:20:17;;;;;;;;;;;;;;;6.94;42.40;99475.59;5070281;28;19962;-36
2023/04/07 00:22:42;;;;;;;;;;;;;;;6.60;43.41;99477.00;5070133;28;19974;-36
2023/04/07 00:25:07;;;;;;;;;;;;;;;6.76;42.41;99463.59;5069825;28;19956;-36
2023/04/07 00:27:33;;;;;;;;;;;;;;;6.89;42.72;99465.53;5070182;28;20003;-35
2023/04/07 00:29:58;;;;;;;;;;;;;;;6.84;42.45;99468.75;5071135;28;20008;-35
2023/04/07 00:32:24;;;;;;;;;;;;;;;6.44;43.49;99478.03;5073890;28;19916;-34
2023/04/07 00:34:49;;;;;;;;;;;;;;;6.68;42.82;99476.91;5073850;28;20023;-35
2023/04/07 00:37:14;;;;;;;;;;;;;;;6.57;42.92;99474.75;5073672;28;19917;-36
2023/04/07 00:39:40;;;;;;;;;;;;;;;6.34;44.18;99480.97;5073658;28;19920;-36
2023/04/07 00:42:06;;;;;;;;;;;;;;;6.47;43.94;99472.34;5073730;28;20477;-36
2023/04/07 00:44:31;;;;;;;;;;;;;;;6.69;43.22;99475.91;5073747;28;20386;-35
2023/04/07 00:46:57;;;;;;;;;;;;;;;6.77;42.91;99477.63;5073662;28;20006;-37
2023/04/07 00:49:23;;;;;;;;;;;;;;;6.84;42.43;99471.41;5073407;28;19916;-36
2023/04/07 00:51:48;;;;;;;;;;;;;;;6.98;42.74;99482.97;5073585;28;20289;-36
2023/04/07 00:54:14;;;;;;;;;;;;;;;6.70;42.61;99480.22;5073246;28;19966;-35
2023/04/07 00:56:39;;;;;;;;;;;;;;;6.68;43.12;99473.44;5073366;28;19919;-35
2023/04/07 00:59:04;;;;;;;;;;;;;;;7.05;42.21;99473.28;5073188;28;19919;-36
2023/04/07 01:01:34;;;;;;;;;;;;;;;7.22;41.96;99470.41;5073391;28;19920;-36
2023/04/07 01:04:00;;;;;;;;;;;;;;;7.28;42.13;99472.28;5073297;28;19924;-36
2023/04/07 01:06:28;;;;;;;;;;;;;;;7.28;41.81;99469.63;5073131;28;20061;-35
2023/04/07 01:09:04;;;;;;;;;;;;;;;6.61;42.59;99481.31;5073216;28;19956;-36
2023/04/07 01:11:34;;;;;;;;;;;;;;;6.68;43.46;99479.53;5073193;28;19912;-36
2023/04/07 01:14:00;;;;;;;;;;;;;;;6.30;43.91;99468.28;5085764;28;20354;-36
2023/04/07 01:16:27;;;;;;;;;;;;;;;6.37;43.40;99475.28;5093335;28;19916;-36
2023/04/07 01:18:57;;;;;;;;;;;;;;;6.44;43.89;99470.09;5093285;28;19912;-35
2023/04/07 01:21:26;;;;;;;;;;;;;;;6.37;43.32;99480.56;5093347;28;19918;-35
2023/04/07 01:24:00;;;;;;;;;;;;;;;6.19;43.65;99467.72;5092928;28;19920;-35
2023/04/07 01:26:28;;;;;;;;;;;;;;;6.27;43.79;99480.03;5093187;28;19920;-36
2023/04/07 01:29:02;;;;;;;;;;;;;;;6.46;43.19;99478.66;5092735;28;19984;-36
2023/04/07 01:31:27;;;;;;;;;;;;;;;6.54;43.34;99483.84;5093131;28;19913;-38
2023/04/07 01:33:54;;;;;;;;;;;;;;;6.38;43.91;99484.06;5092895;28;19980;-35
2023/04/07 01:36:20;;;;;;;;;;;;;;;6.44;44.21;99483.31;5093219;28;19912;-36
2023/04/07 01:38:47;;;;;;;;;;;;;;;5.88;44.69;99471.31;5092828;28;19919;-36
2023/04/07 01:41:13;;;;;;;;;;;;;;;5.93;44.49;99486.63;5092548;28;19919;-37
2023/04/07 01:43:40;;;;;;;;;;;;;;;5.58;45.61;99480.13;5092704;28;19912;-36
2023/04/07 01:46:05;;;;;;;;;;;;;;;6.15;44.25;99487.59;5092730;28;19931;-36
2023/04/07 01:48:30;;;;;;;;;;;;;;;6.06;44.14;99492.13;5092769;28;19912;-36
2023/04/07 01:50:56;;;;;;;;;;;;;;;6.02;44.67;99490.03;5092452;28;19919;-36
2023/04/07 01:53:22;;;;;;;;;;;;;;;6.19;44.51;99494.16;5092733;28;20006;-36
2023/04/07 01:55:47;;;;;;;;;;;;;;;6.40;43.80;99489.97;5092377;28;19916;-36
2023/04/07 01:58:13;;;;;;;;;;;;;;;6.33;44.01;99491.69;5092387;28;19916;-35
2023/04/07 02:00:38;;;;;;;;;;;;;;;6.29;44.02;99485.16;5092450;28;19912;-36
2023/04/07 02:03:10;;;;;;;;;;;;;;;6.21;44.20;99492.16;5092384;28;19912;-36
2023/04/07 02:05:37;;;;;;;;;;;;;;;6.20;44.22;99481.75;5092375;28;19920;-36
2023/04/07 02:08:04;;;;;;;;;;;;;;;5.99;44.57;99487.75;5092310;28;19912;-36
2023/04/07 02:10:32;;;;;;;;;;;;;;;5.93;44.18;99475.22;5092198;28;19912;-36
2023/04/07 02:12:59;;;;;;;;;;;;;;;6.00;44.28;99481.47;5092142;28;19947;-36
2023/04/07 02:15:25;;;;;;;;;;;;;;;5.82;44.34;99476.47;5091513;28;20316;-36
2023/04/07 02:17:52;;;;;;;;;;;;;;;5.60;45.35;99481.63;5091584;28;20423;-36
2023/04/07 02:20:18;;;;;;;;;;;;;;;6.00;44.07;99478.84;5092063;28;20015;-35
2023/04/07 02:22:44;;;;;;;;;;;;;;;5.96;44.19;99481.00;5092029;28;19912;-35
2023/04/07 02:25:22;;;;;;;;;;;;;;;6.19;44.09;99478.31;5091702;28;19931;-36
2023/04/07 02:27:47;;;;;;;;;;;;;;;6.04;43.63;99485.41;5091995;28;19924;-35
2023/04/07 02:30:13;;;;;;;;;;;;;;;6.22;44.19;99483.22;5091966;28;19912;-35
2023/04/07 02:32:38;;;;;;;;;;;;;;;5.77;44.75;99484.09;5091770;28;19919;-35
2023/04/07 02:35:04;;;;;;;;;;;;;;;5.82;44.60;99482.56;5091699;28;19916;-35
2023/04/07 02:37:29;;;;;;;;;;;;;;;5.75;44.34;99475.53;5091582;28;20353;-36
2023/04/07 02:39:54;;;;;;;;;;;;;;;5.66;44.50;99483.53;5091708;28;19969;-36
2023/04/07 02:42:20;;;;;;;;;;;;;;;5.45;44.81;99481.56;5091876;28;19994;-37
2023/04/07 02:44:45;;;;;;;;;;;;;;;5.72;44.33;99487.28;5091684;28;20314;-37
2023/04/07 02:47:10;;;;;;;;;;;;;;;5.78;44.50;99483.94;5090944;28;19912;-37
2023/04/07 02:49:36;;;;;;;;;;;;;;;5.76;45.22;99487.75;5091232;28;20351;-37
2023/04/07 02:52:01;;;;;;;;;;;;;;;5.77;44.95;99492.88;5090999;28;19961;-37
2023/04/07 02:54:26;;;;;;;;;;;;;;;5.73;44.97;99494.22;5091113;28;19916;-37
2023/04/07 02:56:51;;;;;;;;;;;;;;;5.87;45.13;99489.97;5091477;28;20360;-37
2023/04/07 02:59:17;;;;;;;;;;;;;;;6.00;45.13;99494.69;5091317;28;19912;-37
2023/04/07 03:01:42;;;;;;;;;;;;;;;5.99;45.10;99495.66;5091133;28;19912;-36
2023/04/07 03:04:07;;;;;;;;;;;;;;;6.02;44.27;99493.50;5090159;28;20049;-37
2023/04/07 03:06:33;;;;;;;;;;;;;;;6.22;44.49;99501.69;5091209;28;19965;-37
2023/04/07 03:08:58;;;;;;;;;;;;;;;6.22;44.14;99496.41;5090948;28;20002;-37
2023/04/07 03:11:23;;;;;;;;;;;;;;;6.43;44.20;99495.69;5091351;28;19912;-37
2023/04/07 03:13:48;;;;;;;;;;;;;;;6.32;44.31;99505.91;5124069;27;19916;-36
2023/04/07 03:16:14;;;;;;;;;;;;;;;6.13;44.30;99494.03;5090824;28;20014;-35
2023/04/07 03:18:39;;;;;;;;;;;;;;;6.24;44.59;99502.38;5090940;28;19916;-36
2023/04/07 03:21:04;;;;;;;;;;;;;;;6.03;45.15;99497.75;5090881;28;19946;-36
2023/04/07 03:23:30;;;;;;;;;;;;;;;6.04;44.81;99506.53;5090671;28;19924;-36
2023/04/07 03:25:56;;;;;;;;;;;;;;;5.76;45.26;99504.41;5091341;28;20284;-36
2023/04/07 03:28:22;;;;;;;;;;;;;;;5.72;45.71;99502.31;5090848;28;19920;-35
2023/04/07 03:30:47;;;;;;;;;;;;;;;5.98;45.21;99505.41;5090886;28;20288;-36
2023/04/07 03:33:12;;;;;;;;;;;;;;;5.83;45.56;99502.72;5090958;28;19913;-36
2023/04/07 03:35:38;;;;;;;;;;;;;;;5.89;44.95;99506.47;5090668;28;20011;-36
2023/04/07 03:38:03;;;;;;;;;;;;;;;6.18;44.56;99507.53;5090848;28;20336;-36
2023/04/07 03:40:28;;;;;;;;;;;;;;;6.17;44.64;99517.31;5090776;28;19912;-36
2023/04/07 03:42:54;;;;;;;;;;;;;;;6.18;44.56;99513.63;5090863;28;19912;-36
2023/04/07 03:45:19;;;;;;;;;;;;;;;6.29;44.52;99516.84;5090544;28;19912;-37
2023/04/07 03:47:44;;;;;;;;;;;;;;;6.24;44.59;99518.22;5090731;28;19925;-37
2023/04/07 03:50:10;;;;;;;;;;;;;;;5.71;45.50;99519.97;5090562;28;20340;-41
2023/04/07 03:52:35;;;;;;;;;;;;;;;6.00;44.43;99516.63;5090366;28;19916;-36
2023/04/07 03:55:01;;;;;;;;;;;;;;;5.85;44.95;99516.56;5090367;28;19916;-36
2023/04/07 03:57:26;;;;;;;;;;;;;;;5.81;45.29;99522.38;5090453;28;20007;-37
2023/04/07 03:59:51;;;;;;;;;;;;;;;5.76;45.63;99525.53;5090363;28;20277;-37
2023/04/07 04:02:17;;;;;;;;;;;;;;;5.83;45.54;99525.66;5103349;28;19911;-41
2023/04/07 04:04:42;;;;;;;;;;;;;;;5.68;45.94;99525.63;5113337;28;19981;-36
2023/04/07 04:07:07;;;;;;;;;;;;;;;5.94;45.12;99522.59;5106081;28;20050;-36
2023/04/07 04:09:33;;;;;;;;;;;;;;;6.11;44.30;99530.38;5094416;28;19912;-40
2023/04/07 04:11:58;;;;;;;;;;;;;;;6.02;44.58;99529.66;5094557;28;19915;-41
2023/04/07 04:14:23;;;;;;;;;;;;;;;5.75;45.17;99525.72;5094305;28;20391;-41
2023/04/07 04:16:48;;;;;;;;;;;;;;;6.21;44.43;99530.97;5094238;28;19916;-40
2023/04/07 04:19:14;;;;;;;;;;;;;;;6.19;43.99;99531.16;5098528;28;20051;-40
2023/04/07 04:21:39;;;;;;;;;;;;;;;6.21;44.38;99539.72;5106620;28;20011;-40
2023/04/07 04:24:05;;;;;;;;;;;;;;;6.29;44.86;99540.66;5094084;28;19927;-36
2023/04/07 04:26:30;;;;;;;;;;;;;;;6.23;44.02;99544.81;5091871;28;20327;-36
2023/04/07 04:28:55;;;;;;;;;;;;;;;6.44;44.06;99550.22;5088797;28;19916;-36
2023/04/07 04:31:21;;;;;;;;;;;;;;;6.58;43.93;99556.50;5094100;28;20399;-36
2023/04/07 04:33:46;;;;;;;;;;;;;;;6.75;43.08;99556.34;5094026;28;19916;-40
2023/04/07 04:36:12;;;;;;;;;;;;;;;6.62;43.99;99554.31;5094597;28;20366;-47
2023/04/07 04:38:37;;;;;;;;;;;;;;;6.91;43.20;99544.72;5094750;28;19918;-46
2023/04/07 04:41:02;;;;;;;;;;;;;;;7.10;42.71;99545.97;5094493;28;20348;-43
2023/04/07 04:43:28;;;;;;;;;;;;;;;7.36;42.22;99554.22;5094616;28;19919;-41
2023/04/07 04:45:53;;;;;;;;;;;;;;;7.56;41.61;99556.28;5093955;28;20383;-41
2023/04/07 04:48:18;;;;;;;;;;;;;;;8.12;40.47;99559.00;5093582;28;19920;-46
2023/04/07 04:50:43;;;;;;;;;;;;;;;7.72;41.33;99563.16;5092582;28;19912;-45
2023/04/07 04:53:09;;;;;;;;;;;;;;;7.81;41.03;99562.03;5091700;28;19912;-46
2023/04/07 04:55:34;;;;;;;;;;;;;;;7.89;40.56;99556.59;5093874;28;20392;-46
2023/04/07 04:58:00;;;;;;;;;;;;;;;7.59;40.91;99558.53;5093164;28;20418;-47
2023/04/07 05:00:25;;;;;;;;;;;;;;;7.50;42.07;99563.16;5093199;28;19972;-45
2023/04/07 05:02:50;;;;;;;;;;;;;;;7.74;41.44;99569.88;5093639;28;20007;-47
2023/04/07 05:05:16;;;;;;;;;;;;;;;7.89;40.36;99564.53;5093462;28;19934;-47
2023/04/07 05:07:41;;;;;;;;;;;;;;;8.02;40.32;99574.44;5093275;28;19943;-42
2023/04/07 05:10:07;;;;;;;;;;;;;;;7.94;39.94;99571.91;5093122;28;20551;-43
2023/04/07 05:12:32;;;;;;;;;;;;;;;7.81;40.91;99576.06;5092700;28;19916;-40
2023/04/07 05:14:57;;;;;;;;;;;;;;;8.01;40.00;99580.72;5093024;28;20003;-42
2023/04/07 05:17:23;;;;;;;;;;;;;;;8.01;40.15;99575.44;5093422;28;20406;-45
2023/04/07 05:19:48;;;;;;;;;;;;;;;8.28;39.42;99571.19;5091185;28;19965;-46
2023/04/07 05:22:13;;;;;;;;;;;;;;;8.18;39.80;99573.34;5093139;28;20380;-40
2023/04/07 05:24:39;;;;;;;;;;;;;;;8.49;39.01;99582.75;5093122;28;19920;-41
2023/04/07 05:27:04;;;;;;;;;;;;;;;8.45;38.61;99587.63;5088541;28;20230;-41
2023/04/07 05:29:30;;;;;;;;;;;;;;;8.74;38.34;99591.91;5092838;28;19938;-41
2023/04/07 05:31:55;;;;;;;;;;;;;;;8.61;37.82;99587.34;5092594;28;19919;-42
2023/04/07 05:34:21;;;;;;;;;;;;;;;8.77;39.86;99594.16;5091771;28;19948;-46
2023/04/07 05:36:46;;;;;;;;;;;;;;;8.86;38.63;99591.38;5091952;28;19934;-46
2023/04/07 05:39:11;;;;;;;;;;;;;;;9.14;38.98;99593.97;5092061;28;19954;-42
2023/04/07 05:41:36;;;;;;;;;;;;;;;9.70;36.38;99591.06;5092438;28;20383;-40
2023/04/07 05:44:02;;;;;;;;;;;;;;;9.35;36.66;99590.38;5092637;28;19913;-40
2023/04/07 05:46:28;;;;;;;;;;;;;;;9.39;35.27;99591.59;5092689;28;20372;-41
2023/04/07 05:48:53;;;;;;;;;;;;;;;9.69;36.25;99585.94;5092489;28;20442;-40
2023/04/07 05:51:18;;;;;;;;;;;;;;;9.92;35.03;99590.91;5092675;28;20003;-41
2023/04/07 05:53:44;;;;;;;;;;;;;;;10.15;34.93;99594.00;5092426;28;19919;-41
2023/04/07 05:56:09;;;;;;;;;;;;;;;9.49;34.80;99585.91;5092499;28;19916;-41
2023/04/07 05:58:34;;;;;;;;;;;;;;;10.01;33.85;99589.66;5090470;28;19923;-40
2023/04/07 06:01:00;;;;;;;;;;;;;;;10.18;33.87;99598.91;5092932;28;19923;-43
2023/04/07 06:03:25;;;;;;;;;;;;;;;10.32;34.15;99598.94;5093156;28;19916;-47
2023/04/07 06:05:51;;;;;;;;;;;;;;;10.43;34.55;99592.97;5092686;28;19934;-45
2023/04/07 06:08:16;;;;;;;;;;;;;;;10.65;33.53;99600.75;5093295;28;19912;-46
2023/04/07 06:10:43;;;;;;;;;;;;;;;10.79;33.68;99596.22;5092560;28;20366;-46
2023/04/07 06:13:08;;;;;;;;;;;;;;;10.46;33.53;99602.41;5092283;28;19912;-46
2023/04/07 06:15:33;;;;;;;;;;;;;;;10.40;34.03;99603.22;5092368;28;19916;-47
2023/04/07 06:17:59;;;;;;;;;;;;;;;10.12;34.15;99597.03;5092351;28;20015;-46
2023/04/07 06:20:26;;;;;;;;;;;;;;;10.71;34.38;99600.72;5092325;28;20003;-46
2023/04/07 06:22:52;;;;;;;;;;;;;;;10.14;34.43;99605.63;5091171;28;19916;-46
2023/04/07 06:25:17;;;;;;;;;;;;;;;10.34;34.50;99602.22;5090299;28;20388;-47
2023/04/07 06:27:42;;;;;;;;;;;;;;;10.31;33.36;99603.41;5089313;28;19912;-47
2023/04/07 06:30:08;;;;;;;;;;;;;;;10.22;33.77;99604.63;5090825;28;19916;-47
2023/04/07 06:32:33;;;;;;;;;;;;;;;10.86;33.72;99615.66;5091759;28;19946;-46
2023/04/07 06:34:58;;;;;;;;;;;;;;;10.71;32.81;99619.34;5091573;28;20372;-47
2023/04/07 06:37:24;;;;;;;;;;;;;;;11.29;33.89;99607.94;5092016;28;19950;-46
2023/04/07 06:39:50;;;;;;;;;;;;;;;11.22;32.85;99616.97;5092239;28;19940;-47
2023/04/07 06:42:15;;;;;;;;;;;;;;;11.85;31.46;99618.94;5091252;28;19962;-46
2023/04/07 06:44:41;;;;;;;;;;;;;;;11.71;32.15;99616.34;5090131;28;19951;-47
2023/04/07 06:47:06;;;;;;;;;;;;;;;12.64;30.98;99609.50;5091715;28;19912;-46
2023/04/07 06:49:31;;;;;;;;;;;;;;;12.65;30.66;99621.00;5091949;28;20448;-47
2023/04/07 06:51:57;;;;;;;;;;;;;;;12.23;30.42;99612.75;5092176;28;20036;-46
2023/04/07 06:54:22;;;;;;;;;;;;;;;12.50;30.47;99621.34;5092220;28;19912;-47
2023/04/07 06:56:47;;;;;;;;;;;;;;;12.71;29.71;99625.47;5091632;28;19969;-46
2023/04/07 06:59:13;;;;;;;;;;;;;;;12.61;29.87;99622.47;5091374;28;20012;-46
2023/04/07 07:01:38;;;;;;;;;;;;;;;12.65;29.67;99627.16;5091784;28;19927;-46
2023/04/07 07:04:05;;;;;;;;;;;;;;;11.96;30.61;99631.59;5091663;28;20376;-47
2023/04/07 07:06:30;;;;;;;;;;;;;;;12.56;29.09;99627.66;5091987;28;20285;-46
2023/04/07 07:08:56;;;;;;;;;;;;;;;13.13;28.86;99620.28;5092003;28;19916;-47
2023/04/07 07:11:21;;;;;;;;;;;;;;;13.10;29.06;99621.56;5091787;28;19962;-47
2023/04/07 07:13:47;;;;;;;;;;;;;;;13.48;28.97;99633.06;5091618;28;19918;-47
2023/04/07 07:16:12;;;;;;;;;;;;;;;13.86;28.52;99631.97;5091670;28;20015;-47
2023/04/07 07:18:37;;;;;;;;;;;;;;;14.22;27.54;99622.13;5091464;28;20010;-47
2023/04/07 07:21:03;;;;;;;;;;;;;;;14.75;26.74;99631.97;5091321;28;19918;-46
2023/04/07 07:23:28;;;;;;;;;;;;;;;14.43;26.64;99626.97;5091219;28;20006;-47
2023/04/07 07:25:53;;;;;;;;;;;;;;;14.84;26.39;99629.78;5089275;28;20011;-46
2023/04/07 07:28:20;;;;;;;;;;;;;;;15.01;26.06;99633.38;5091489;28;20386;-47
2023/04/07 07:30:45;;;;;;;;;;;;;;;14.41;27.31;99633.56;5091613;28;19912;-47
2023/04/07 07:33:11;;;;;;;;;;;;;;;14.68;26.77;99638.50;5091425;28;19945;-47
2023/04/07 07:35:36;;;;;;;;;;;;;;;14.58;26.70;99625.69;5091384;28;20328;-47
2023/04/07 07:38:02;;;;;;;;;;;;;;;15.29;26.56;99637.19;5091563;28;20233;-46
2023/04/07 07:40:27;;;;;;;;;;;;;;;15.59;26.05;99631.59;5097722;28;20010;-47
2023/04/07 07:42:52;;;;;;;;;;;;;;;14.90;27.20;99626.16;5097830;28;19920;-46
2023/04/07 07:45:18;;;;;;;;;;;;;;;15.45;27.38;99627.56;5098166;28;19919;-46
2023/04/07 07:47:44;;;;;;;;;;;;;;;15.71;26.99;99636.09;5098058;28;19974;-47
2023/04/07 07:50:09;;;;;;;;;;;;;;;16.27;25.27;99628.25;5098331;28;19931;-47
2023/04/07 07:52:34;;;;;;;;;;;;;;;16.10;26.16;99633.59;5097871;28;20441;-47
2023/04/07 07:55:00;;;;;;;;;;;;;;;16.44;25.32;99618.31;5097895;28;19920;-46
2023/04/07 07:57:25;;;;;;;;;;;;;;;16.29;24.78;99629.63;5097435;28;19959;-47
2023/04/07 07:59:51;;;;;;;;;;;;;;;16.35;25.41;99619.78;5097393;28;19930;-47
2023/04/07 08:02:16;;;;;;;;;;;;;;;16.68;24.96;99623.50;5097848;28;20379;-47
2023/04/07 08:04:41;;;;;;;;;;;;;;;16.66;25.35;99621.06;5097668;28;20007;-47
2023/04/07 08:07:06;;;;;;;;;;;;;;;16.60;25.53;99624.72;5097692;28;19912;-47
2023/04/07 08:09:32;;;;;;;;;;;;;;;16.84;24.75;99614.63;5097896;28;19947;-47
2023/04/07 08:11:57;;;;;;;;;;;;;;;16.54;24.80;99618.47;5097469;28;19999;-47
2023/04/07 08:14:23;;;;;;;;;;;;;;;16.78;25.29;99618.28;5097607;28;19912;-47
2023/04/07 08:16:48;;;;;;;;;;;;;;;16.14;24.38;99615.94;5097565;28;19935;-46
2023/04/07 08:19:13;;;;;;;;;;;;;;;15.78;26.31;99621.53;5097956;28;19912;-47
2023/04/07 08:21:39;;;;;;;;;;;;;;;16.08;25.25;99619.63;5094701;28;20308;-46
2023/04/07 08:24:04;;;;;;;;;;;;;;;16.14;24.96;99614.06;5095234;28;19966;-46
2023/04/07 08:26:30;;;;;;;;;;;;;;;16.79;24.85;99611.84;5097340;28;19916;-48
2023/04/07 08:28:55;;;;;;;;;;;;;;;16.23;24.67;99612.63;5097330;28;19973;-47
2023/04/07 08:31:21;;;;;;;;;;;;;;;16.39;25.54;99612.84;5097202;28;19912;-46
2023/04/07 08:33:46;;;;;;;;;;;;;;;16.94;24.68;99605.88;5097094;28;19977;-47
2023/04/07 08:36:11;;;;;;;;;;;;;;;16.46;25.66;99599.28;5097455;28;19916;-48
2023/04/07 08:38:37;;;;;;;;;;;;;;;16.31;25.56;99599.84;5092376;28;20017;-46
2023/04/07 08:41:06;;;;;;;;;;;;;;;16.89;24.74;99601.28;5094541;28;19981;-48
2023/04/07 08:43:32;;;;;;;;;;;;;;;17.44;25.23;99599.53;5096887;28;19934;-47
2023/04/07 08:45:59;;;;;;;;;;;;;;;17.02;24.31;99593.88;5096725;28;19974;-46
2023/04/07 08:48:26;;;;;;;;;;;;;;;17.01;24.95;99593.09;5097170;28;20390;-47
2023/04/07 08:50:51;;;;;;;;;;;;;;;17.12;25.31;99583.28;5093355;28;19924;-46
2023/04/07 08:53:18;;;;;;;;;;;;;;;17.33;24.80;99595.09;5093302;28;19919;-46
2023/04/07 08:55:43;;;;;;;;;;;;;;;17.48;24.28;99599.84;5093253;28;19920;-48
2023/04/07 08:58:12;;;;;;;;;;;;;;;16.97;24.65;99589.28;5093408;28;20299;-46
2023/04/07 09:00:40;;;;;;;;;;;;;;;17.29;25.14;99594.78;5090938;28;20336;-46
2023/04/07 09:03:06;;;;;;;;;;;;;;;17.50;24.85;99592.31;5092485;28;19938;-46
2023/04/07 09:05:31;;;;;;;;;;;;;;;16.67;25.53;99586.97;5093948;28;19920;-47
2023/04/07 09:07:56;;;;;;;;;;;;;;;15.69;26.17;99581.84;5093658;28;19950;-46
2023/04/07 09:10:22;;;;;;;;;;;;;;;15.72;25.67;99579.50;5093667;28;20284;-46
2023/04/07 09:12:47;;;;;;;;;;;;;;;16.65;24.82;99581.81;5093524;28;19955;-40
2023/04/07 09:15:13;;;;;;;;;;;;;;;16.67;25.59;99585.06;5092733;28;20399;-41
2023/04/07 09:17:38;;;;;;;;;;;;;;;17.10;25.05;99580.84;5092903;28;19995;-41
2023/04/07 09:20:04;;;;;;;;;;;;;;;16.78;25.79;99591.41;5093023;28;20357;-41
2023/04/07 09:22:38;;;;;;;;;;;;;;;16.52;24.82;99588.34;5092535;28;19916;-41
2023/04/07 09:25:13;;;;;;;;;;;;;;;16.60;24.66;99585.25;5091050;28;19924;-41
2023/04/07 09:27:38;;;;;;;;;;;;;;;17.06;24.30;99589.63;5090356;28;19923;-40
2023/04/07 09:30:11;;;;;;;;;;;;;;;16.37;24.71;99580.91;5093216;28;19913;-40
2023/04/07 09:32:37;;;;;;;;;;;;;;;15.38;27.01;99576.78;5093166;28;20060;-41
2023/04/07 09:35:02;;;;;;;;;;;;;;;15.84;26.54;99582.19;5092958;28;20479;-40
2023/04/07 09:37:28;;;;;;;;;;;;;;;16.11;26.29;99568.94;5092759;28;19995;-40
2023/04/07 09:39:53;;;;;;;;;;;;;;;16.78;26.12;99569.91;5092556;28;19912;-42
2023/04/07 09:42:22;;;;;;;;;;;;;;;16.47;26.27;99565.97;5090274;28;19946;-40
2023/04/07 09:44:47;;;;;;;;;;;;;;;16.70;25.48;99563.09;5092600;28;19912;-41
2023/04/07 09:47:12;;;;;;;;;;;;;;;17.02;25.46;99564.31;5089477;28;19952;-42
2023/04/07 09:49:52;;;;;;;;;;;;;;;16.60;26.18;99565.63;5090819;28;19938;-41
2023/04/07 09:52:19;;;;;;;;;;;;;;;16.56;25.40;99561.81;5092262;28;19920;-40
2023/04/07 09:54:45;;;;;;;;;;;;;;;16.69;25.31;99561.47;5091917;28;19923;-41
2023/04/07 09:57:12;;;;;;;;;;;;;;;16.26;25.52;99563.00;5093427;28;19920;-40
2023/04/07 09:59:39;;;;;;;;;;;;;;;16.84;25.24;99568.94;5092416;28;19916;-42
2023/04/07 10:02:05;;;;;;;;;;;;;;;16.93;24.51;99566.66;5092610;28;19918;-41
2023/04/07 10:04:31;;;;;;;;;;;;;;;17.14;24.84;99570.41;5092710;28;19912;-41
2023/04/07 10:06:57;;;;;;;;;;;;;;;17.03;25.01;99571.34;5092776;28;19963;-41
2023/04/07 10:09:23;;;;;;;;;;;;;;;17.11;24.67;99569.00;5092604;28;19912;-36
2023/04/07 10:11:49;;;;;;;;;;;;;;;16.05;25.11;99563.72;5091702;28;19912;-36
2023/04/07 10:14:15;;;;;;;;;;;;;;;16.29;25.99;99573.25;5090422;28;19958;-35
2023/04/07 10:16:41;;;;;;;;;;;;;;;16.29;25.16;99564.38;5090820;28;19912;-36
2023/04/07 10:19:06;;;;;;;;;;;;;;;16.72;25.07;99563.66;5091308;28;20304;-36
2023/04/07 10:21:36;;;;;;;;;;;;;;;17.08;25.02;99564.16;5091331;28;19912;-37
2023/04/07 10:24:19;;;;;;;;;;;;;;;16.09;25.41;99564.84;5091191;28;20370;-36
2023/04/07 10:26:47;;;;;;;;;;;;;;;16.06;26.54;99560.00;5091446;28;19916;-36
2023/04/07 10:29:14;;;;;;;;;;;;;;;16.61;26.40;99568.06;5092279;28;19954;-36
2023/04/07 10:31:40;;;;;;;;;;;;;;;16.13;25.36;99564.16;5092379;28;19912;-37
2023/04/07 10:34:05;;;;;;;;;;;;;;;15.89;26.83;99559.97;5091398;28;20292;-37
2023/04/07 10:36:30;;;;;;;;;;;;;;;15.95;28.01;99554.44;5091367;28;19923;-36
2023/04/07 10:39:08;;;;;;;;;;;;;;;16.48;26.61;99565.72;5091423;28;19931;-36
2023/04/07 10:41:36;;;;;;;;;;;;;;;15.20;27.54;99567.03;5092007;28;20346;-37
2023/04/07 10:44:06;;;;;;;;;;;;;;;15.62;26.75;99569.41;5091731;28;20299;-37
2023/04/07 10:46:59;;;;;;;;;;;;;;;15.33;27.80;99559.78;5091736;28;19944;-35
2023/04/07 10:49:24;;;;;;;;;;;;;;;15.37;27.31;99550.19;5090573;28;19918;-35
2023/04/07 10:52:08;;;;;;;;;;;;;;;15.79;27.46;99555.25;5091638;28;20007;-36
2023/04/07 10:54:34;;;;;;;;;;;;;;;15.17;27.33;99553.28;5091600;28;19924;-37
2023/04/07 10:57:02;;;;;;;;;;;;;;;14.92;27.76;99553.59;5091433;28;19919;-36
2023/04/07 10:59:38;;;;;;;;;;;;;;;14.63;28.80;99553.53;5091642;28;20372;-36
2023/04/07 11:02:12;;;;;;;;;;;;;;;14.85;28.07;99551.84;5091554;28;19935;-36
2023/04/07 11:04:38;;;;;;;;;;;;;;;14.25;29.20;99560.13;5091483;28;19948;-36
2023/04/07 11:07:04;;;;;;;;;;;;;;;14.62;29.09;99557.22;5091264;28;19919;-36
2023/04/07 11:09:29;;;;;;;;;;;;;;;14.63;28.22;99548.16;5091318;28;19912;-36
2023/04/07 11:11:55;;;;;;;;;;;;;;;14.71;29.09;99550.47;5091270;28;20427;-36
2023/04/07 11:14:27;;;;;;;;;;;;;;;14.75;29.45;99548.13;5090538;28;19919;-36
2023/04/07 11:16:52;;;;;;;;;;;;;;;14.62;28.79;99550.03;5091309;28;19984;-36
2023/04/07 11:19:17;;;;;;;;;;;;;;;14.91;28.60;99547.44;5091236;28;20379;-35
2023/04/07 11:21:43;;;;;;;;;;;;;;;14.88;29.30;99549.75;5091137;28;19917;-36
2023/04/07 11:24:08;;;;;;;;;;;;;;;14.81;29.25;99552.53;5091097;28;19920;-36
2023/04/07 11:26:40;;;;;;;;;;;;;;;15.00;28.59;99553.22;5090999;28;19916;-36
2023/04/07 11:29:06;;;;;;;;;;;;;;;14.95;28.10;99539.72;5091119;28;19912;-36
2023/04/07 11:31:32;;;;;;;;;;;;;;;15.65;28.34;99546.69;5091037;28;19918;-36
2023/04/07 11:33:58;;;;;;;;;;;;;;;15.59;28.34;99537.72;5091134;28;19991;-36
2023/04/07 11:36:32;;;;;;;;;;;;;;;15.71;28.29;99543.03;5091036;28;20010;-35
2023/04/07 11:38:57;;;;;;;;;;;;;;;15.61;27.40;99551.72;5091011;28;19959;-36
2023/04/07 11:41:24;;;;;;;;;;;;;;;15.24;27.85;99549.41;5090867;28;19958;-37
2023/04/07 11:44:02;;;;;;;;;;;;;;;15.10;28.18;99540.03;5090733;28;19923;-37
2023/04/07 11:46:27;;;;;;;;;;;;;;;15.02;28.60;99543.06;5091203;28;19919;-36
2023/04/07 11:48:52;;;;;;;;;;;;;;;15.22;29.38;99545.34;5090710;28;19912;-36
2023/04/07 11:51:19;;;;;;;;;;;;;;;15.25;28.67;99539.53;5090569;28;20011;-35
2023/04/07 11:53:45;;;;;;;;;;;;;;;15.56;28.47;99537.41;5090727;28;19912;-37
2023/04/07 11:56:15;;;;;;;;;;;;;;;14.99;29.50;99543.56;5090524;28;19995;-36
2023/04/07 11:58:46;;;;;;;;;;;;;;;14.88;28.98;99552.44;5090525;28;19919;-36
2023/04/07 12:01:12;;;;;;;;;;;;;;;15.17;29.50;99538.03;5090527;28;20315;-37
2023/04/07 12:03:53;;;;;;;;;;;;;;;15.25;29.30;99534.97;5090687;28;20411;-35
2023/04/07 12:06:27;;;;;;;;;;;;;;;15.28;28.87;99536.34;5090530;28;19912;-36
2023/04/07 12:08:53;;;;;;;;;;;;;;;15.19;30.12;99521.69;5090627;28;20003;-35
2023/04/07 12:11:18;;;;;;;;;;;;;;;15.02;28.69;99529.66;5090681;28;20061;-36
2023/04/07 12:13:43;;;;;;;;;;;;;;;15.41;29.35;99525.31;5090663;28;20289;-36
2023/04/07 12:16:09;;;;;;;;;;;;;;;15.06;29.17;99528.16;5090526;28;20382;-36
2023/04/07 12:18:35;;;;;;;;;;;;;;;15.08;29.26;99538.63;5090612;28;19922;-36
2023/04/07 12:21:00;;;;;;;;;;;;;;;14.70;29.72;99535.47;5090415;28;19928;-35
2023/04/07 12:23:26;;;;;;;;;;;;;;;14.73;30.03;99543.00;5090520;28;19920;-37
2023/04/07 12:25:51;;;;;;;;;;;;;;;15.27;29.44;99531.22;5091445;28;19916;-37
2023/04/07 12:28:16;;;;;;;;;;;;;;;15.02;30.18;99535.03;5094284;28;20010;-37
2023/04/07 12:30:42;;;;;;;;;;;;;;;14.39;30.56;99523.22;5094032;28;20299;-36
2023/04/07 12:33:07;;;;;;;;;;;;;;;14.63;30.36;99521.38;5094162;28;19912;-36
2023/04/07 12:35:33;;;;;;;;;;;;;;;15.02;30.34;99518.94;5093457;28;19916;-37
2023/04/07 12:37:58;;;;;;;;;;;;;;;14.94;30.58;99522.81;5094070;28;19941;-36
2023/04/07 12:40:23;;;;;;;;;;;;;;;15.09;31.21;99521.50;5094215;28;19972;-37
2023/04/07 12:42:49;;;;;;;;;;;;;;;15.59;30.37;99521.66;5094281;28;19912;-37
2023/04/07 12:45:14;;;;;;;;;;;;;;;15.45;30.93;99522.97;5093855;28;20264;-36